createdAt,value
2019-03-01T00:01:25.318Z,84.70
2019-03-01T00:04:06.326Z,48.90
2019-03-01T00:06:49.629Z,45.30
2019-03-01T00:09:21.153Z,45.25
2019-03-01T00:12:21.659Z,47.48
2019-03-01T00:15:02.058Z,46.92
2019-03-01T00:17:42.393Z,47.48
2019-03-01T00:20:25.076Z,48.30
2019-03-01T00:23:05.143Z,51.37
2019-03-01T00:25:54.349Z,54.48
2019-03-01T00:28:28.777Z,56.47
2019-03-01T00:31:09.214Z,56.33
2019-03-01T00:34:05.205Z,58.07
2019-03-01T00:37:08.150Z,60.80
2019-03-01T00:39:54.516Z,61.57
2019-03-01T00:42:42.759Z,62.60
2019-03-01T00:45:11.225Z,60.50
2019-03-01T00:47:39.659Z,62.10
2019-03-01T00:50:10.237Z,64.57
2019-03-01T00:52:38.673Z,62.93
2019-03-01T00:55:08.370Z,63.13
2019-03-01T00:57:36.818Z,62.73
2019-03-01T01:00:08.354Z,61.83
2019-03-01T01:02:36.799Z,62.60
2019-03-01T01:05:06.827Z,62.80
2019-03-01T01:07:35.256Z,63.10
2019-03-01T01:10:04.437Z,66.93
2019-03-01T01:12:32.877Z,64.00
2019-03-01T01:15:01.331Z,65.63
2019-03-01T01:17:29.757Z,67.53
2019-03-01T01:19:58.207Z,67.60
2019-03-01T01:22:26.640Z,71.07
2019-03-01T01:24:55.101Z,72.13
2019-03-01T01:27:23.542Z,70.05
2019-03-01T01:29:51.982Z,72.40
2019-03-01T01:32:20.430Z,72.03
2019-03-01T01:34:48.873Z,71.17
2019-03-01T01:37:17.337Z,69.47
2019-03-01T01:39:45.850Z,68.97
2019-03-01T01:42:14.293Z,71.10
2019-03-01T01:44:42.732Z,70.97
2019-03-01T01:47:11.164Z,70.63
2019-03-01T01:49:39.612Z,70.93
2019-03-01T01:52:08.077Z,71.23
2019-03-01T01:54:36.582Z,74.63
2019-03-01T01:57:05.085Z,75.15
2019-03-01T01:59:33.533Z,75.60
2019-03-01T02:02:01.974Z,74.50
2019-03-01T02:04:30.416Z,77.70
2019-03-01T02:06:58.849Z,77.20
2019-03-01T02:09:27.369Z,77.62
2019-03-01T02:11:56.278Z,75.93
2019-03-01T02:14:24.726Z,77.87
2019-03-01T02:16:53.233Z,78.13
2019-03-01T02:19:21.756Z,76.83
2019-03-01T02:21:50.206Z,76.70
2019-03-01T02:24:18.640Z,77.73
2019-03-01T02:26:47.075Z,75.83
2019-03-01T02:29:15.525Z,75.65
2019-03-01T02:31:47.164Z,79.07
2019-03-01T02:34:15.610Z,75.90
2019-03-01T02:36:44.045Z,74.93
2019-03-01T02:39:12.496Z,73.50
2019-03-01T02:41:40.933Z,73.90
2019-03-01T02:44:09.374Z,74.67
2019-03-01T02:46:37.819Z,73.67
2019-03-01T02:49:06.329Z,75.07
2019-03-01T02:51:34.793Z,73.30
2019-03-01T02:54:03.233Z,75.47
2019-03-01T02:56:31.683Z,75.03
2019-03-01T02:59:00.132Z,74.03
2019-03-01T03:01:28.584Z,73.42
2019-03-01T03:03:57.018Z,75.30
2019-03-01T03:06:27.109Z,74.43
2019-03-01T03:08:55.549Z,72.72
2019-03-01T03:11:23.998Z,74.77
2019-03-01T03:13:52.435Z,72.80
2019-03-01T03:16:20.893Z,74.70
2019-03-01T03:18:49.319Z,73.47
2019-03-01T03:21:17.773Z,76.12
2019-03-01T03:23:46.208Z,74.47
2019-03-01T03:26:14.699Z,72.37
2019-03-01T03:28:43.170Z,72.07
2019-03-01T03:31:11.618Z,72.10
2019-03-01T03:33:40.106Z,73.50
2019-03-01T03:36:08.587Z,74.65
2019-03-01T03:38:37.096Z,75.37
2019-03-01T03:41:24.868Z,75.70
2019-03-01T03:43:53.309Z,72.40
2019-03-01T03:46:21.744Z,74.17
2019-03-01T03:48:50.190Z,74.75
2019-03-01T03:51:18.649Z,73.37
2019-03-01T03:53:47.154Z,92.05
2019-03-01T03:56:15.590Z,85.87
2019-03-01T03:58:44.040Z,77.12
2019-03-01T04:01:12.631Z,74.50
2019-03-01T04:03:41.077Z,74.77
2019-03-01T04:06:09.522Z,73.57
2019-03-01T04:08:37.952Z,70.97
2019-03-01T04:11:06.399Z,72.78
2019-03-01T04:13:34.838Z,75.72
2019-03-01T04:16:03.279Z,74.12
2019-03-01T04:18:31.724Z,73.67
2019-03-01T04:21:00.161Z,72.17
2019-03-01T04:23:28.674Z,73.52
2019-03-01T04:25:57.112Z,70.45
2019-03-01T04:28:25.544Z,72.58
2019-03-01T04:30:54.005Z,69.77
2019-03-01T04:33:22.429Z,71.67
2019-03-01T04:35:50.872Z,69.13
2019-03-01T04:38:19.317Z,69.15
2019-03-01T04:40:47.756Z,66.77
2019-03-01T04:43:16.201Z,65.15
2019-03-01T04:45:44.648Z,67.95
2019-03-01T04:48:13.091Z,66.45
2019-03-01T04:50:41.533Z,66.85
2019-03-01T04:53:09.964Z,68.52
2019-03-01T04:55:38.416Z,63.35
2019-03-01T04:58:06.846Z,64.63
2019-03-01T05:00:35.301Z,63.15
2019-03-01T05:03:03.737Z,64.55
2019-03-01T05:05:32.189Z,63.63
2019-03-01T05:08:00.625Z,62.50
2019-03-01T05:10:29.065Z,60.45
2019-03-01T05:12:57.513Z,64.27
2019-03-01T05:15:25.957Z,60.77
2019-03-01T05:17:54.399Z,59.15
2019-03-01T05:20:22.911Z,62.67
2019-03-01T05:22:51.349Z,61.27
2019-03-01T05:25:19.788Z,61.83
2019-03-01T05:27:48.249Z,59.80
2019-03-01T05:30:18.601Z,58.23
2019-03-01T05:32:47.045Z,56.28
2019-03-01T05:35:15.545Z,60.28
2019-03-01T05:37:44.079Z,60.43
2019-03-01T05:40:13.972Z,59.33
2019-03-01T05:42:42.419Z,57.30
2019-03-01T05:45:14.710Z,58.30
2019-03-01T05:47:43.160Z,59.38
2019-03-01T05:50:13.949Z,55.55
2019-03-01T05:52:42.405Z,56.73
2019-03-01T05:55:12.176Z,61.20
2019-03-01T05:58:18.444Z,61.63
2019-03-01T06:00:47.233Z,59.88
2019-03-01T06:03:24.679Z,61.50
2019-03-01T06:05:53.758Z,62.25
2019-03-01T06:08:40.476Z,61.58
2019-03-01T06:11:12.260Z,60.43
2019-03-01T06:14:07.951Z,66.95
2019-03-01T06:16:41.920Z,71.53
2019-03-01T06:19:31.469Z,74.40
2019-03-01T06:22:31.860Z,68.83
2019-03-01T06:25:09.030Z,64.87
2019-03-01T06:27:55.515Z,61.53
2019-03-01T06:30:33.020Z,49.40
2019-03-01T06:33:27.224Z,57.93
2019-03-01T06:36:04.672Z,54.20
2019-03-01T06:39:10.177Z,73.02
2019-03-01T06:41:59.369Z,77.67
2019-03-01T06:44:45.773Z,64.70
2019-03-01T06:47:38.323Z,58.08
2019-03-01T06:50:19.294Z,44.75
2019-03-01T06:52:47.868Z,53.87
2019-03-01T06:55:38.755Z,44.75
2019-03-01T06:58:09.972Z,54.80
2019-03-01T07:00:49.481Z,41.40
2019-03-01T07:03:18.209Z,39.85
2019-03-01T07:06:06.780Z,39.08
2019-03-01T07:08:42.381Z,33.25
2019-03-01T07:11:18.306Z,31.68
2019-03-01T07:14:01.013Z,30.92
2019-03-01T07:16:47.610Z,27.83
2019-03-01T07:19:16.165Z,26.48
2019-03-01T07:21:44.749Z,25.80
2019-03-01T07:24:13.377Z,24.90
2019-03-01T07:26:41.949Z,22.25
2019-03-01T07:29:10.435Z,22.83
2019-03-01T07:31:38.938Z,23.90
2019-03-01T07:34:07.380Z,21.93
2019-03-01T07:36:35.850Z,20.10
2019-03-01T07:39:07.601Z,18.57
2019-03-01T07:41:37.339Z,18.37
2019-03-01T07:44:09.062Z,16.75
2019-03-01T07:46:39.258Z,16.73
2019-03-01T07:49:07.771Z,16.50
2019-03-01T07:51:38.532Z,17.00
2019-03-01T07:54:08.282Z,14.83
2019-03-01T07:56:39.527Z,14.50
2019-03-01T07:59:06.962Z,12.03
2019-03-01T08:01:35.537Z,12.20
2019-03-01T08:04:04.035Z,11.68
2019-03-01T08:06:32.492Z,11.47
2019-03-01T08:09:00.929Z,10.75
2019-03-01T08:11:31.812Z,11.07
2019-03-01T08:14:02.643Z,11.27
2019-03-01T08:16:44.192Z,11.20
2019-03-01T08:19:12.184Z,9.77
2019-03-01T08:21:45.870Z,10.77
2019-03-01T08:24:13.479Z,9.57
2019-03-01T08:26:41.992Z,9.90
2019-03-01T08:29:10.651Z,11.40
2019-03-01T08:31:39.132Z,10.63
2019-03-01T08:34:07.761Z,10.37
2019-03-01T08:36:38.557Z,10.43
2019-03-01T08:39:07.547Z,10.03
2019-03-01T08:41:35.992Z,9.43
2019-03-01T08:44:04.606Z,10.18
2019-03-01T08:46:33.046Z,10.53
2019-03-01T08:49:01.600Z,11.90
2019-03-01T08:51:30.187Z,13.68
2019-03-01T08:53:58.624Z,12.50
2019-03-01T08:56:27.050Z,12.50
2019-03-01T08:58:55.502Z,13.35
2019-03-01T09:01:25.576Z,13.78
2019-03-01T09:04:00.024Z,15.03
2019-03-01T09:06:28.453Z,17.00
2019-03-01T09:08:56.893Z,13.18
2019-03-01T09:11:25.329Z,13.43
2019-03-01T09:13:53.781Z,14.40
2019-03-01T09:16:22.221Z,15.15
2019-03-01T09:18:50.961Z,14.15
2019-03-01T09:21:19.479Z,14.83
2019-03-01T09:23:51.111Z,15.23
2019-03-01T09:26:19.929Z,14.30
2019-03-01T09:28:48.265Z,16.07
2019-03-01T09:31:16.696Z,15.40
2019-03-01T09:33:45.147Z,15.18
2019-03-01T09:36:17.827Z,15.18
2019-03-01T09:38:45.398Z,14.90
2019-03-01T09:41:13.842Z,15.05
2019-03-01T09:43:42.293Z,15.65
2019-03-01T09:46:10.801Z,14.83
2019-03-01T09:48:39.254Z,14.65
2019-03-01T09:51:10.742Z,12.95
2019-03-01T09:53:37.875Z,14.45
2019-03-01T09:56:06.373Z,14.23
2019-03-01T09:58:34.822Z,15.32
2019-03-01T10:01:06.577Z,13.55
2019-03-01T10:03:35.026Z,13.30
2019-03-01T10:06:03.464Z,13.72
2019-03-01T10:08:31.906Z,13.03
2019-03-01T10:11:00.409Z,12.40
2019-03-01T10:13:30.360Z,13.38
2019-03-01T10:15:59.037Z,13.83
2019-03-01T10:18:27.496Z,13.10
2019-03-01T10:20:55.941Z,13.95
2019-03-01T10:23:24.393Z,15.13
2019-03-01T10:25:52.833Z,14.47
2019-03-01T10:28:21.279Z,14.33
2019-03-01T10:30:49.733Z,16.45
2019-03-01T10:33:18.173Z,14.60
2019-03-01T10:35:46.620Z,15.88
2019-03-01T10:38:15.066Z,14.38
2019-03-01T10:40:43.521Z,15.25
2019-03-01T10:43:11.948Z,17.85
2019-03-01T10:45:40.403Z,17.30
2019-03-01T10:48:08.841Z,18.23
2019-03-01T10:50:37.313Z,19.20
2019-03-01T10:53:05.826Z,19.50
2019-03-01T10:55:34.374Z,20.50
2019-03-01T10:58:02.820Z,20.43
2019-03-01T11:00:32.005Z,19.67
2019-03-01T11:03:00.443Z,20.08
2019-03-01T11:05:28.932Z,20.57
2019-03-01T11:07:57.516Z,19.05
2019-03-01T11:10:31.338Z,21.00
2019-03-01T11:12:59.775Z,19.60
2019-03-01T11:15:28.220Z,20.23
2019-03-01T11:17:56.655Z,18.70
2019-03-01T11:20:25.245Z,18.48
2019-03-01T11:22:53.695Z,17.77
2019-03-01T11:25:23.676Z,17.80
2019-03-01T11:27:52.191Z,18.12
2019-03-01T11:30:31.601Z,18.48
2019-03-01T11:33:00.112Z,17.95
2019-03-01T11:35:28.560Z,16.57
2019-03-01T11:37:57.014Z,17.80
2019-03-01T11:40:30.648Z,18.23
2019-03-01T11:42:59.156Z,17.93
2019-03-01T11:45:27.680Z,16.60
2019-03-01T11:47:56.127Z,17.48
2019-03-01T11:50:25.309Z,17.98
2019-03-01T11:52:53.919Z,17.87
2019-03-01T11:55:22.372Z,18.00
2019-03-01T11:57:50.867Z,17.60
2019-03-01T12:00:24.980Z,18.52
2019-03-01T12:02:53.862Z,17.32
2019-03-01T12:05:22.476Z,19.67
2019-03-01T12:07:50.912Z,19.98
2019-03-01T12:10:30.207Z,19.77
2019-03-01T12:12:58.645Z,19.45
2019-03-01T12:15:27.084Z,20.17
2019-03-01T12:17:55.528Z,19.23
2019-03-01T12:20:28.789Z,20.17
2019-03-01T12:22:57.217Z,21.27
2019-03-01T12:25:25.672Z,21.15
2019-03-01T12:27:54.109Z,19.77
2019-03-01T12:30:25.059Z,19.10
2019-03-01T12:32:53.501Z,21.75
2019-03-01T12:35:21.939Z,20.70
2019-03-01T12:37:50.445Z,21.75
2019-03-01T12:40:26.922Z,22.27
2019-03-01T12:42:55.360Z,22.20
2019-03-01T12:45:23.827Z,22.27
2019-03-01T12:47:52.259Z,23.07
2019-03-01T12:50:20.717Z,23.73
2019-03-01T12:52:49.605Z,22.77
2019-03-01T12:55:22.939Z,23.25
2019-03-01T12:57:51.369Z,23.80
2019-03-01T13:00:22.528Z,24.18
2019-03-01T13:02:51.062Z,25.15
2019-03-01T13:05:19.506Z,24.15
2019-03-01T13:07:47.932Z,24.20
2019-03-01T13:10:19.204Z,24.05
2019-03-01T13:12:47.640Z,24.35
2019-03-01T13:15:16.095Z,23.20
2019-03-01T13:17:44.531Z,24.40
2019-03-01T13:20:17.393Z,24.12
2019-03-01T13:22:45.834Z,23.35
2019-03-01T13:25:15.707Z,24.20
2019-03-01T13:27:44.280Z,23.30
2019-03-01T13:30:26.298Z,22.52
2019-03-01T13:32:55.170Z,22.48
2019-03-01T13:35:26.128Z,22.02
2019-03-01T13:37:55.579Z,15.75
2019-03-01T13:40:25.277Z,14.65
2019-03-01T13:42:54.023Z,14.90
2019-03-01T13:45:26.074Z,13.62
2019-03-01T13:48:15.720Z,12.85
2019-03-01T13:50:44.021Z,13.63
2019-03-01T13:53:12.440Z,13.38
2019-03-01T13:55:40.890Z,13.50
2019-03-01T13:58:09.320Z,13.80
2019-03-01T14:00:37.835Z,14.85
2019-03-01T14:03:06.284Z,15.17
2019-03-01T14:05:34.719Z,15.60
2019-03-01T14:08:08.912Z,16.30
2019-03-01T14:10:33.343Z,15.63
2019-03-01T14:13:01.795Z,16.20
2019-03-01T14:15:30.300Z,16.57
2019-03-01T14:18:01.276Z,16.02
2019-03-01T14:20:28.932Z,15.75
2019-03-01T14:22:57.372Z,16.57
2019-03-01T14:25:25.808Z,16.00
2019-03-01T14:27:54.251Z,15.03
2019-03-01T14:30:31.144Z,14.35
2019-03-01T14:32:58.443Z,15.10
2019-03-01T14:35:27.282Z,14.33
2019-03-01T14:37:55.888Z,15.57
2019-03-01T14:40:24.537Z,15.48
2019-03-01T14:43:12.432Z,15.90
2019-03-01T14:45:41.712Z,14.93
2019-03-01T14:48:11.034Z,14.65
2019-03-01T14:50:39.501Z,14.68
2019-03-01T14:53:07.950Z,15.30
2019-03-01T14:55:51.415Z,15.50
2019-03-01T14:58:25.677Z,15.25
2019-03-01T15:01:32.931Z,16.05
2019-03-01T15:04:01.367Z,14.67
2019-03-01T15:06:29.833Z,14.23
2019-03-01T15:08:58.273Z,13.43
2019-03-01T15:11:32.777Z,14.30
2019-03-01T15:14:01.228Z,14.67
2019-03-01T15:16:29.663Z,14.80
2019-03-01T15:18:58.112Z,15.03
2019-03-01T15:21:26.574Z,14.23
2019-03-01T15:23:56.210Z,14.03
2019-03-01T15:26:26.790Z,14.37
2019-03-01T15:28:56.017Z,15.67
2019-03-01T15:31:24.559Z,16.12
2019-03-01T15:33:53.008Z,18.87
2019-03-01T15:36:21.449Z,19.67
2019-03-01T15:38:49.885Z,24.03
2019-03-01T15:41:18.834Z,26.43
2019-03-01T15:43:47.262Z,29.30
2019-03-01T15:46:17.741Z,31.17
2019-03-01T15:48:45.916Z,32.33
2019-03-01T15:51:14.449Z,34.80
2019-03-01T15:53:42.897Z,35.53
2019-03-01T15:56:30.671Z,44.10
2019-03-01T15:58:59.120Z,42.47
2019-03-01T16:01:27.570Z,37.65
2019-03-01T16:03:57.165Z,36.33
2019-03-01T16:06:26.185Z,40.43
2019-03-01T16:08:54.645Z,39.70
2019-03-01T16:11:23.107Z,40.30
2019-03-01T16:13:51.553Z,40.43
2019-03-01T16:16:20.060Z,39.70
2019-03-01T16:18:48.492Z,42.43
2019-03-01T16:21:16.937Z,42.90
2019-03-01T16:23:45.388Z,41.70
2019-03-01T16:26:13.826Z,42.43
2019-03-01T16:28:42.277Z,41.83
2019-03-01T16:31:10.725Z,44.13
2019-03-01T16:33:39.183Z,42.80
2019-03-01T16:36:09.267Z,43.33
2019-03-01T16:38:40.905Z,42.63
2019-03-01T16:41:08.518Z,43.73
2019-03-01T16:43:37.096Z,43.87
2019-03-01T16:46:05.537Z,43.57
2019-03-01T16:48:33.977Z,40.10
2019-03-01T16:51:02.415Z,43.03
2019-03-01T16:53:30.864Z,40.13
2019-03-01T16:56:02.356Z,40.60
2019-03-01T16:58:29.520Z,42.03
2019-03-01T17:00:57.960Z,42.50
2019-03-01T17:03:26.427Z,44.20
2019-03-01T17:05:55.157Z,43.53
2019-03-01T17:08:23.809Z,44.50
2019-03-01T17:10:52.284Z,44.63
2019-03-01T17:13:23.619Z,44.10
2019-03-01T17:15:50.902Z,45.20
2019-03-01T17:18:19.361Z,44.20
2019-03-01T17:20:47.794Z,44.40
2019-03-01T17:23:16.254Z,45.33
2019-03-01T17:25:44.702Z,43.93
2019-03-01T17:28:13.151Z,41.90
2019-03-01T17:30:41.581Z,43.67
2019-03-01T17:33:12.752Z,41.87
2019-03-01T17:35:40.941Z,33.73
2019-03-01T17:38:10.308Z,28.67
2019-03-01T17:40:38.734Z,24.00
2019-03-01T17:43:07.186Z,22.87
2019-03-01T17:45:35.623Z,21.67
2019-03-01T17:48:04.068Z,21.60
2019-03-01T17:50:32.501Z,21.30
2019-03-01T17:53:00.953Z,22.57
2019-03-01T17:55:29.397Z,21.07
2019-03-01T17:57:57.854Z,20.40
2019-03-01T18:00:37.916Z,21.43
2019-03-01T18:03:06.500Z,20.47
2019-03-01T18:05:37.065Z,19.87
2019-03-01T18:08:05.128Z,20.73
2019-03-01T18:10:33.672Z,20.20
2019-03-01T18:13:02.122Z,19.70
2019-03-01T18:15:30.553Z,21.03
2019-03-01T18:17:59.068Z,19.87
2019-03-01T18:20:27.522Z,21.40
2019-03-01T18:22:59.328Z,19.77
2019-03-01T18:25:27.138Z,21.13
2019-03-01T18:27:55.810Z,19.70
2019-03-01T18:30:34.632Z,21.20
2019-03-01T18:33:03.079Z,21.73
2019-03-01T18:35:31.510Z,19.93
2019-03-01T18:37:59.944Z,20.90
2019-03-01T18:40:28.384Z,20.90
2019-03-01T18:42:56.896Z,22.13
2019-03-01T18:45:27.243Z,21.63
2019-03-01T18:47:55.680Z,21.97
2019-03-01T18:50:31.195Z,21.47
2019-03-01T18:53:03.448Z,20.13
2019-03-01T18:55:31.436Z,20.27
2019-03-01T18:58:00.023Z,21.50
2019-03-01T19:00:40.164Z,21.67
2019-03-01T19:03:08.609Z,22.40
2019-03-01T19:05:40.226Z,20.97
2019-03-01T19:08:07.344Z,23.03
2019-03-01T19:10:36.405Z,22.37
2019-03-01T19:13:05.303Z,23.87
2019-03-01T19:15:34.065Z,23.40
2019-03-01T19:18:02.577Z,22.67
2019-03-01T19:20:41.433Z,21.83
2019-03-01T19:23:09.593Z,20.70
2019-03-01T19:25:38.025Z,21.17
2019-03-01T19:28:06.468Z,20.47
2019-03-01T19:30:34.902Z,23.97
2019-03-01T19:33:03.539Z,45.53
2019-03-01T19:35:31.969Z,33.77
2019-03-01T19:38:00.414Z,29.60
2019-03-01T19:40:29.015Z,25.20
2019-03-01T19:42:57.616Z,31.80
2019-03-01T19:45:26.096Z,42.50
2019-03-01T19:47:54.542Z,36.63
2019-03-01T19:50:25.999Z,40.27
2019-03-01T19:52:54.629Z,25.90
2019-03-01T19:55:23.051Z,19.60
2019-03-01T19:57:51.492Z,19.50
2019-03-01T20:00:25.204Z,20.47
2019-03-01T20:02:53.653Z,20.53
2019-03-01T20:05:45.657Z,19.63
2019-03-01T20:08:14.105Z,18.73
2019-03-01T20:10:42.545Z,19.43
2019-03-01T20:13:13.078Z,21.27
2019-03-01T20:15:42.787Z,20.03
2019-03-01T20:18:11.329Z,19.77
2019-03-01T20:20:39.784Z,19.27
2019-03-01T20:23:08.243Z,18.47
2019-03-01T20:25:36.678Z,17.40
2019-03-01T20:28:05.112Z,18.63
2019-03-01T20:30:33.918Z,18.67
2019-03-01T20:33:02.361Z,17.53
2019-03-01T20:35:30.886Z,19.07
2019-03-01T20:38:00.278Z,26.13
2019-03-01T20:40:29.495Z,24.03
2019-03-01T20:43:01.214Z,19.23
2019-03-01T20:45:34.736Z,19.70
2019-03-01T20:48:03.226Z,17.57
2019-03-01T20:50:31.669Z,17.13
2019-03-01T20:53:00.101Z,17.47
2019-03-01T20:55:28.543Z,17.73
2019-03-01T20:57:59.703Z,18.67
2019-03-01T21:00:29.808Z,16.63
2019-03-01T21:02:58.149Z,16.90
2019-03-01T21:05:28.995Z,50.77
2019-03-01T21:07:56.748Z,18.57
2019-03-01T21:10:29.889Z,17.57
2019-03-01T21:12:58.337Z,17.03
2019-03-01T21:15:26.786Z,16.07
2019-03-01T21:17:56.932Z,16.87
2019-03-01T21:20:25.644Z,16.63
2019-03-01T21:22:54.082Z,17.43
2019-03-01T21:25:23.663Z,16.17
2019-03-01T21:27:52.101Z,15.37
2019-03-01T21:30:27.901Z,15.97
2019-03-01T21:32:56.411Z,17.27
2019-03-01T21:35:24.865Z,19.33
2019-03-01T21:37:53.536Z,17.23
2019-03-01T21:40:21.975Z,17.53
2019-03-01T21:42:52.773Z,16.90
2019-03-01T21:45:24.538Z,16.90
2019-03-01T21:47:53.043Z,16.33
2019-03-01T21:50:21.493Z,16.10
2019-03-01T21:52:49.993Z,17.23
2019-03-01T21:55:19.968Z,17.40
2019-03-01T21:57:48.420Z,17.17
2019-03-01T22:00:25.265Z,15.23
2019-03-01T22:02:52.976Z,14.87
2019-03-01T22:05:22.690Z,16.47
2019-03-01T22:07:51.201Z,15.53
2019-03-01T22:10:19.635Z,16.53
2019-03-01T22:12:48.064Z,17.27
2019-03-01T22:15:25.511Z,15.60
2019-03-01T22:17:54.780Z,15.53
2019-03-01T22:20:23.600Z,15.90
2019-03-01T22:22:52.025Z,17.23
2019-03-01T22:25:20.474Z,15.77
2019-03-01T22:27:48.913Z,15.13
2019-03-01T22:30:33.787Z,14.87
2019-03-01T22:33:02.228Z,15.20
2019-03-01T22:35:30.687Z,16.90
2019-03-01T22:38:01.094Z,15.70
2019-03-01T22:40:29.569Z,15.00
2019-03-01T22:42:58.086Z,15.53
2019-03-01T22:45:26.528Z,14.97
2019-03-01T22:47:54.959Z,15.30
2019-03-01T22:50:23.388Z,14.13
2019-03-01T22:52:51.845Z,13.83
2019-03-01T22:55:21.180Z,13.57
2019-03-01T22:57:49.686Z,13.53
2019-03-01T23:00:31.821Z,13.50
2019-03-01T23:03:00.333Z,12.80
2019-03-01T23:05:28.767Z,10.87
2019-03-01T23:08:00.209Z,11.53
2019-03-01T23:10:27.938Z,10.50
2019-03-01T23:12:56.394Z,11.17
2019-03-01T23:15:24.888Z,10.73
2019-03-01T23:17:53.349Z,9.60
2019-03-01T23:20:26.127Z,9.53
2019-03-01T23:22:51.947Z,9.80
2019-03-01T23:25:20.398Z,9.63
2019-03-01T23:27:49.218Z,9.50
2019-03-01T23:30:18.012Z,8.63
2019-03-01T23:32:48.769Z,9.57
2019-03-01T23:35:18.140Z,8.77
2019-03-01T23:37:46.916Z,9.60
2019-03-01T23:40:16.108Z,8.83
2019-03-01T23:42:44.564Z,9.10
2019-03-01T23:45:13.794Z,9.63
2019-03-01T23:47:43.226Z,8.90
2019-03-01T23:50:11.664Z,9.60
2019-03-01T23:52:40.117Z,9.73
2019-03-01T23:55:08.813Z,9.03
2019-03-01T23:57:38.009Z,9.73
